sensor_id;sensor_type;location;lat;lon;timestamp;temperature;humidity
41262;DHT22;29629;52.532;13.352;2023-06-04T00:02:09;14.30;88.00
41262;DHT22;29629;52.532;13.352;2023-06-04T00:04:36;14.30;88.20
41262;DHT22;29629;52.532;13.352;2023-06-04T00:07:03;14.30;88.20
41262;DHT22;29629;52.532;13.352;2023-06-04T00:09:31;14.30;88.60
41262;DHT22;29629;52.532;13.352;2023-06-04T00:11:58;14.20;88.40
41262;DHT22;29629;52.532;13.352;2023-06-04T00:14:25;14.10;89.10
41262;DHT22;29629;52.532;13.352;2023-06-04T00:16:52;14.10;89.60
41262;DHT22;29629;52.532;13.352;2023-06-04T00:19:19;14.10;89.80
41262;DHT22;29629;52.532;13.352;2023-06-04T00:21:46;14.10;89.80
41262;DHT22;29629;52.532;13.352;2023-06-04T00:24:13;14.10;90.40
41262;DHT22;29629;52.532;13.352;2023-06-04T00:26:41;14.00;90.30
41262;DHT22;29629;52.532;13.352;2023-06-04T00:29:08;14.00;90.40
41262;DHT22;29629;52.532;13.352;2023-06-04T00:31:35;14.00;90.70
41262;DHT22;29629;52.532;13.352;2023-06-04T00:34:03;14.00;90.80
41262;DHT22;29629;52.532;13.352;2023-06-04T00:36:30;13.90;90.90
41262;DHT22;29629;52.532;13.352;2023-06-04T00:38:57;13.90;91.00
41262;DHT22;29629;52.532;13.352;2023-06-04T00:41:24;13.80;91.40
41262;DHT22;29629;52.532;13.352;2023-06-04T00:43:53;13.80;91.50
41262;DHT22;29629;52.532;13.352;2023-06-04T00:46:23;13.80;91.50
41262;DHT22;29629;52.532;13.352;2023-06-04T00:48:51;13.80;91.70
41262;DHT22;29629;52.532;13.352;2023-06-04T00:51:18;13.80;92.10
41262;DHT22;29629;52.532;13.352;2023-06-04T00:53:46;13.80;92.00
41262;DHT22;29629;52.532;13.352;2023-06-04T00:56:13;13.80;92.20
41262;DHT22;29629;52.532;13.352;2023-06-04T00:58:40;13.70;92.30
41262;DHT22;29629;52.532;13.352;2023-06-04T01:01:15;13.70;92.70
41262;DHT22;29629;52.532;13.352;2023-06-04T01:03:47;13.60;92.60
41262;DHT22;29629;52.532;13.352;2023-06-04T01:06:20;13.60;92.80
41262;DHT22;29629;52.532;13.352;2023-06-04T01:08:49;13.60;93.10
41262;DHT22;29629;52.532;13.352;2023-06-04T01:11:31;13.50;93.60
41262;DHT22;29629;52.532;13.352;2023-06-04T01:13:58;13.50;93.40
41262;DHT22;29629;52.532;13.352;2023-06-04T01:16:27;13.50;93.70
41262;DHT22;29629;52.532;13.352;2023-06-04T01:18:57;13.50;93.60
41262;DHT22;29629;52.532;13.352;2023-06-04T01:21:26;13.40;94.10
41262;DHT22;29629;52.532;13.352;2023-06-04T01:23:56;13.40;94.20
41262;DHT22;29629;52.532;13.352;2023-06-04T01:26:27;13.30;94.50
41262;DHT22;29629;52.532;13.352;2023-06-04T01:28:56;13.30;94.50
41262;DHT22;29629;52.532;13.352;2023-06-04T01:31:25;13.30;94.70
41262;DHT22;29629;52.532;13.352;2023-06-04T01:33:54;13.30;95.00
41262;DHT22;29629;52.532;13.352;2023-06-04T01:36:23;13.20;95.30
41262;DHT22;29629;52.532;13.352;2023-06-04T01:38:50;13.20;95.50
41262;DHT22;29629;52.532;13.352;2023-06-04T01:41:17;13.20;95.80
41262;DHT22;29629;52.532;13.352;2023-06-04T01:43:44;13.10;96.20
41262;DHT22;29629;52.532;13.352;2023-06-04T01:46:11;13.10;96.10
41262;DHT22;29629;52.532;13.352;2023-06-04T01:48:39;13.00;96.60
41262;DHT22;29629;52.532;13.352;2023-06-04T01:51:06;13.00;97.10
41262;DHT22;29629;52.532;13.352;2023-06-04T01:53:33;13.10;96.60
41262;DHT22;29629;52.532;13.352;2023-06-04T01:56:00;13.00;96.70
41262;DHT22;29629;52.532;13.352;2023-06-04T01:58:27;13.00;97.20
41262;DHT22;29629;52.532;13.352;2023-06-04T02:00:54;12.90;97.30
41262;DHT22;29629;52.532;13.352;2023-06-04T02:03:25;13.00;97.40
41262;DHT22;29629;52.532;13.352;2023-06-04T02:05:54;12.90;97.70
41262;DHT22;29629;52.532;13.352;2023-06-04T02:08:21;12.90;98.00
41262;DHT22;29629;52.532;13.352;2023-06-04T02:10:52;12.90;98.50
41262;DHT22;29629;52.532;13.352;2023-06-04T02:13:19;12.90;99.20
41262;DHT22;29629;52.532;13.352;2023-06-04T02:15:46;12.90;99.20
41262;DHT22;29629;52.532;13.352;2023-06-04T02:18:15;12.90;99.30
41262;DHT22;29629;52.532;13.352;2023-06-04T02:20:43;12.80;99.60
41262;DHT22;29629;52.532;13.352;2023-06-04T02:23:15;12.80;99.80
41262;DHT22;29629;52.532;13.352;2023-06-04T02:25:43;12.70;99.90
41262;DHT22;29629;52.532;13.352;2023-06-04T02:28:11;12.70;99.90
41262;DHT22;29629;52.532;13.352;2023-06-04T02:30:38;12.70;99.90
41262;DHT22;29629;52.532;13.352;2023-06-04T02:33:05;12.70;99.90
41262;DHT22;29629;52.532;13.352;2023-06-04T02:35:35;12.70;99.90
41262;DHT22;29629;52.532;13.352;2023-06-04T02:38:02;12.60;99.90
41262;DHT22;29629;52.532;13.352;2023-06-04T02:40:30;12.70;99.90
41262;DHT22;29629;52.532;13.352;2023-06-04T02:42:57;12.70;99.90
41262;DHT22;29629;52.532;13.352;2023-06-04T02:45:24;12.60;99.90
41262;DHT22;29629;52.532;13.352;2023-06-04T02:47:51;12.60;99.90
41262;DHT22;29629;52.532;13.352;2023-06-04T02:50:19;12.60;99.90
41262;DHT22;29629;52.532;13.352;2023-06-04T02:52:46;12.60;99.90
41262;DHT22;29629;52.532;13.352;2023-06-04T02:55:13;12.50;99.90
41262;DHT22;29629;52.532;13.352;2023-06-04T02:57:42;12.60;99.90
41262;DHT22;29629;52.532;13.352;2023-06-04T03:00:10;12.50;99.90
41262;DHT22;29629;52.532;13.352;2023-06-04T03:02:40;12.50;99.90
41262;DHT22;29629;52.532;13.352;2023-06-04T03:05:09;12.50;99.90
41262;DHT22;29629;52.532;13.352;2023-06-04T03:07:39;12.50;99.90
41262;DHT22;29629;52.532;13.352;2023-06-04T03:10:07;12.50;99.90
41262;DHT22;29629;52.532;13.352;2023-06-04T03:12:35;12.50;99.90
41262;DHT22;29629;52.532;13.352;2023-06-04T03:15:04;12.40;99.90
41262;DHT22;29629;52.532;13.352;2023-06-04T03:17:31;12.40;99.90
41262;DHT22;29629;52.532;13.352;2023-06-04T03:19:58;12.30;99.90
41262;DHT22;29629;52.532;13.352;2023-06-04T03:22:25;12.40;99.90
41262;DHT22;29629;52.532;13.352;2023-06-04T03:24:53;12.40;99.90
41262;DHT22;29629;52.532;13.352;2023-06-04T03:27:20;12.40;99.90
41262;DHT22;29629;52.532;13.352;2023-06-04T03:29:47;12.40;99.90
41262;DHT22;29629;52.532;13.352;2023-06-04T03:32:16;12.50;99.90
41262;DHT22;29629;52.532;13.352;2023-06-04T03:34:43;12.40;99.90
41262;DHT22;29629;52.532;13.352;2023-06-04T03:37:10;12.40;99.90
41262;DHT22;29629;52.532;13.352;2023-06-04T03:39:37;12.40;99.90
41262;DHT22;29629;52.532;13.352;2023-06-04T03:42:04;12.40;99.90
41262;DHT22;29629;52.532;13.352;2023-06-04T03:44:31;12.50;99.90
41262;DHT22;29629;52.532;13.352;2023-06-04T03:46:58;12.50;99.90
41262;DHT22;29629;52.532;13.352;2023-06-04T03:49:27;12.50;99.90
41262;DHT22;29629;52.532;13.352;2023-06-04T03:51:53;12.60;99.90
41262;DHT22;29629;52.532;13.352;2023-06-04T03:54:21;12.60;99.90
41262;DHT22;29629;52.532;13.352;2023-06-04T03:56:48;12.70;99.90
41262;DHT22;29629;52.532;13.352;2023-06-04T03:59:15;12.70;99.90
41262;DHT22;29629;52.532;13.352;2023-06-04T04:01:42;12.70;99.90
41262;DHT22;29629;52.532;13.352;2023-06-04T04:04:09;12.90;99.90
41262;DHT22;29629;52.532;13.352;2023-06-04T04:06:37;13.00;99.90
41262;DHT22;29629;52.532;13.352;2023-06-04T04:09:04;13.00;99.90
41262;DHT22;29629;52.532;13.352;2023-06-04T04:11:32;13.10;99.90
41262;DHT22;29629;52.532;13.352;2023-06-04T04:13:59;13.20;99.90
41262;DHT22;29629;52.532;13.352;2023-06-04T04:16:26;13.30;99.90
41262;DHT22;29629;52.532;13.352;2023-06-04T04:18:54;13.40;99.90
41262;DHT22;29629;52.532;13.352;2023-06-04T04:21:21;13.50;99.90
41262;DHT22;29629;52.532;13.352;2023-06-04T04:23:50;13.50;99.90
41262;DHT22;29629;52.532;13.352;2023-06-04T04:26:18;13.60;99.90
41262;DHT22;29629;52.532;13.352;2023-06-04T04:28:45;13.70;99.90
41262;DHT22;29629;52.532;13.352;2023-06-04T04:31:12;13.80;99.90
41262;DHT22;29629;52.532;13.352;2023-06-04T04:33:39;13.90;99.90
41262;DHT22;29629;52.532;13.352;2023-06-04T04:36:07;13.90;99.90
41262;DHT22;29629;52.532;13.352;2023-06-04T04:38:38;13.90;99.90
41262;DHT22;29629;52.532;13.352;2023-06-04T04:41:06;14.00;99.90
41262;DHT22;29629;52.532;13.352;2023-06-04T04:43:35;14.10;99.90
41262;DHT22;29629;52.532;13.352;2023-06-04T04:46:03;14.20;99.90
41262;DHT22;29629;52.532;13.352;2023-06-04T04:48:30;14.20;99.90
41262;DHT22;29629;52.532;13.352;2023-06-04T04:50:57;14.40;99.90
41262;DHT22;29629;52.532;13.352;2023-06-04T04:53:25;14.40;99.90
41262;DHT22;29629;52.532;13.352;2023-06-04T04:55:52;14.40;99.90
41262;DHT22;29629;52.532;13.352;2023-06-04T04:58:20;14.50;99.90
41262;DHT22;29629;52.532;13.352;2023-06-04T05:00:47;14.50;99.90
41262;DHT22;29629;52.532;13.352;2023-06-04T05:03:14;14.60;99.90
41262;DHT22;29629;52.532;13.352;2023-06-04T05:05:41;14.60;99.90
41262;DHT22;29629;52.532;13.352;2023-06-04T05:08:09;14.80;99.90
41262;DHT22;29629;52.532;13.352;2023-06-04T05:10:35;14.80;99.90
41262;DHT22;29629;52.532;13.352;2023-06-04T05:13:02;14.80;99.90
41262;DHT22;29629;52.532;13.352;2023-06-04T05:15:32;14.80;99.90
41262;DHT22;29629;52.532;13.352;2023-06-04T05:17:59;14.90;99.90
41262;DHT22;29629;52.532;13.352;2023-06-04T05:20:29;15.10;99.90
41262;DHT22;29629;52.532;13.352;2023-06-04T05:22:56;15.10;99.90
41262;DHT22;29629;52.532;13.352;2023-06-04T05:25:23;15.20;99.90
41262;DHT22;29629;52.532;13.352;2023-06-04T05:27:52;15.20;99.90
41262;DHT22;29629;52.532;13.352;2023-06-04T05:30:20;15.30;99.90
41262;DHT22;29629;52.532;13.352;2023-06-04T05:32:48;15.40;99.90
41262;DHT22;29629;52.532;13.352;2023-06-04T05:35:16;15.40;99.90
41262;DHT22;29629;52.532;13.352;2023-06-04T05:37:43;15.50;99.90
41262;DHT22;29629;52.532;13.352;2023-06-04T05:40:11;15.60;99.90
41262;DHT22;29629;52.532;13.352;2023-06-04T05:42:39;15.70;99.90
41262;DHT22;29629;52.532;13.352;2023-06-04T05:45:07;15.80;99.90
41262;DHT22;29629;52.532;13.352;2023-06-04T05:47:35;15.90;99.90
41262;DHT22;29629;52.532;13.352;2023-06-04T05:50:04;16.00;99.90
41262;DHT22;29629;52.532;13.352;2023-06-04T05:52:32;16.10;99.90
41262;DHT22;29629;52.532;13.352;2023-06-04T05:54:59;16.20;99.90
41262;DHT22;29629;52.532;13.352;2023-06-04T05:57:26;16.20;99.90
41262;DHT22;29629;52.532;13.352;2023-06-04T05:59:53;16.40;99.90
41262;DHT22;29629;52.532;13.352;2023-06-04T06:02:20;16.40;99.90
41262;DHT22;29629;52.532;13.352;2023-06-04T06:04:47;16.60;99.90
41262;DHT22;29629;52.532;13.352;2023-06-04T06:07:15;16.50;99.90
41262;DHT22;29629;52.532;13.352;2023-06-04T06:09:42;16.70;99.90
41262;DHT22;29629;52.532;13.352;2023-06-04T06:12:09;16.90;99.90
41262;DHT22;29629;52.532;13.352;2023-06-04T06:14:36;17.00;99.90
41262;DHT22;29629;52.532;13.352;2023-06-04T06:17:04;16.90;99.90
41262;DHT22;29629;52.532;13.352;2023-06-04T06:19:32;16.90;99.90
41262;DHT22;29629;52.532;13.352;2023-06-04T06:21:59;17.00;99.90
41262;DHT22;29629;52.532;13.352;2023-06-04T06:24:27;17.10;99.90
41262;DHT22;29629;52.532;13.352;2023-06-04T06:26:58;17.20;99.90
41262;DHT22;29629;52.532;13.352;2023-06-04T06:29:34;17.20;99.90
41262;DHT22;29629;52.532;13.352;2023-06-04T06:32:03;17.50;99.90
41262;DHT22;29629;52.532;13.352;2023-06-04T06:34:39;17.50;98.90
41262;DHT22;29629;52.532;13.352;2023-06-04T06:37:08;17.50;98.30
41262;DHT22;29629;52.532;13.352;2023-06-04T06:39:37;17.60;98.30
41262;DHT22;29629;52.532;13.352;2023-06-04T06:42:04;17.70;97.30
41262;DHT22;29629;52.532;13.352;2023-06-04T06:44:31;17.90;96.20
41262;DHT22;29629;52.532;13.352;2023-06-04T06:46:58;18.00;96.20
41262;DHT22;29629;52.532;13.352;2023-06-04T06:49:25;18.00;94.80
41262;DHT22;29629;52.532;13.352;2023-06-04T06:51:52;18.10;94.50
41262;DHT22;29629;52.532;13.352;2023-06-04T06:54:19;18.10;93.20
41262;DHT22;29629;52.532;13.352;2023-06-04T06:56:49;17.90;93.40
41262;DHT22;29629;52.532;13.352;2023-06-04T06:59:16;18.40;93.00
41262;DHT22;29629;52.532;13.352;2023-06-04T07:01:43;18.50;92.70
41262;DHT22;29629;52.532;13.352;2023-06-04T07:04:10;18.50;92.60
41262;DHT22;29629;52.532;13.352;2023-06-04T07:06:37;18.60;93.30
41262;DHT22;29629;52.532;13.352;2023-06-04T07:09:04;18.70;92.80
41262;DHT22;29629;52.532;13.352;2023-06-04T07:11:31;19.00;92.50
41262;DHT22;29629;52.532;13.352;2023-06-04T07:13:59;19.00;91.90
41262;DHT22;29629;52.532;13.352;2023-06-04T07:16:28;19.10;91.40
41262;DHT22;29629;52.532;13.352;2023-06-04T07:18:54;19.20;91.30
41262;DHT22;29629;52.532;13.352;2023-06-04T07:21:21;19.30;91.30
41262;DHT22;29629;52.532;13.352;2023-06-04T07:23:49;19.30;91.00
41262;DHT22;29629;52.532;13.352;2023-06-04T07:26:16;19.50;91.10
41262;DHT22;29629;52.532;13.352;2023-06-04T07:28:43;19.50;89.50
41262;DHT22;29629;52.532;13.352;2023-06-04T07:31:15;19.60;90.00
41262;DHT22;29629;52.532;13.352;2023-06-04T07:33:41;19.80;91.00
41262;DHT22;29629;52.532;13.352;2023-06-04T07:36:10;19.90;89.60
41262;DHT22;29629;52.532;13.352;2023-06-04T07:38:37;19.90;88.90
41262;DHT22;29629;52.532;13.352;2023-06-04T07:41:04;19.90;88.90
41262;DHT22;29629;52.532;13.352;2023-06-04T07:43:33;20.00;88.40
41262;DHT22;29629;52.532;13.352;2023-06-04T07:46:00;20.00;88.10
41262;DHT22;29629;52.532;13.352;2023-06-04T07:48:29;20.20;88.40
41262;DHT22;29629;52.532;13.352;2023-06-04T07:50:57;20.50;88.10
41262;DHT22;29629;52.532;13.352;2023-06-04T07:53:24;20.80;86.10
41262;DHT22;29629;52.532;13.352;2023-06-04T07:55:51;20.80;87.40
41262;DHT22;29629;52.532;13.352;2023-06-04T07:58:18;21.20;87.50
41262;DHT22;29629;52.532;13.352;2023-06-04T08:00:45;21.50;85.10
41262;DHT22;29629;52.532;13.352;2023-06-04T08:03:12;21.30;85.00
41262;DHT22;29629;52.532;13.352;2023-06-04T08:05:42;21.10;82.90
41262;DHT22;29629;52.532;13.352;2023-06-04T08:08:09;21.20;84.30
41262;DHT22;29629;52.532;13.352;2023-06-04T08:10:36;21.60;85.20
41262;DHT22;29629;52.532;13.352;2023-06-04T08:13:03;21.20;81.60
41262;DHT22;29629;52.532;13.352;2023-06-04T08:15:30;21.20;82.00
41262;DHT22;29629;52.532;13.352;2023-06-04T08:17:56;21.50;82.80
41262;DHT22;29629;52.532;13.352;2023-06-04T08:20:24;21.60;79.90
41262;DHT22;29629;52.532;13.352;2023-06-04T08:22:52;21.60;80.50
41262;DHT22;29629;52.532;13.352;2023-06-04T08:25:19;21.80;81.70
41262;DHT22;29629;52.532;13.352;2023-06-04T08:27:46;21.80;79.90
41262;DHT22;29629;52.532;13.352;2023-06-04T08:30:13;21.90;78.90
41262;DHT22;29629;52.532;13.352;2023-06-04T08:32:40;21.20;81.50
41262;DHT22;29629;52.532;13.352;2023-06-04T08:35:08;22.10;80.60
41262;DHT22;29629;52.532;13.352;2023-06-04T08:37:35;22.40;78.70
41262;DHT22;29629;52.532;13.352;2023-06-04T08:40:04;22.90;78.50
41262;DHT22;29629;52.532;13.352;2023-06-04T08:42:36;22.80;78.10
41262;DHT22;29629;52.532;13.352;2023-06-04T08:45:05;22.80;76.50
41262;DHT22;29629;52.532;13.352;2023-06-04T08:47:35;22.90;76.80
41262;DHT22;29629;52.532;13.352;2023-06-04T08:50:04;22.70;77.40
41262;DHT22;29629;52.532;13.352;2023-06-04T08:52:33;23.00;75.70
41262;DHT22;29629;52.532;13.352;2023-06-04T08:55:00;23.10;75.90
41262;DHT22;29629;52.532;13.352;2023-06-04T08:57:30;22.20;77.90
41262;DHT22;29629;52.532;13.352;2023-06-04T08:59:57;23.20;77.40
41262;DHT22;29629;52.532;13.352;2023-06-04T09:02:27;23.10;74.70
41262;DHT22;29629;52.532;13.352;2023-06-04T09:04:54;23.80;74.50
41262;DHT22;29629;52.532;13.352;2023-06-04T09:07:21;24.20;74.90
41262;DHT22;29629;52.532;13.352;2023-06-04T09:09:48;24.50;73.60
41262;DHT22;29629;52.532;13.352;2023-06-04T09:12:20;24.90;72.60
41262;DHT22;29629;52.532;13.352;2023-06-04T09:14:49;25.00;72.10
41262;DHT22;29629;52.532;13.352;2023-06-04T09:17:21;25.20;70.50
41262;DHT22;29629;52.532;13.352;2023-06-04T09:19:48;25.80;70.10
41262;DHT22;29629;52.532;13.352;2023-06-04T09:22:16;26.40;70.40
41262;DHT22;29629;52.532;13.352;2023-06-04T09:24:44;26.10;68.40
41262;DHT22;29629;52.532;13.352;2023-06-04T09:27:13;27.20;68.50
41262;DHT22;29629;52.532;13.352;2023-06-04T09:29:40;29.70;65.80
41262;DHT22;29629;52.532;13.352;2023-06-04T09:32:20;30.60;63.20
41262;DHT22;29629;52.532;13.352;2023-06-04T09:34:48;31.20;61.40
41262;DHT22;29629;52.532;13.352;2023-06-04T09:37:15;31.60;60.50
41262;DHT22;29629;52.532;13.352;2023-06-04T09:39:43;31.00;60.60
41262;DHT22;29629;52.532;13.352;2023-06-04T09:42:11;29.50;59.30
41262;DHT22;29629;52.532;13.352;2023-06-04T09:44:43;30.00;59.40
41262;DHT22;29629;52.532;13.352;2023-06-04T09:47:11;31.60;60.80
41262;DHT22;29629;52.532;13.352;2023-06-04T09:49:42;31.90;59.10
41262;DHT22;29629;52.532;13.352;2023-06-04T09:52:09;31.30;58.00
41262;DHT22;29629;52.532;13.352;2023-06-04T09:54:36;31.90;58.80
41262;DHT22;29629;52.532;13.352;2023-06-04T09:57:04;32.60;58.60
41262;DHT22;29629;52.532;13.352;2023-06-04T09:59:33;32.30;58.90
41262;DHT22;29629;52.532;13.352;2023-06-04T10:02:03;33.60;58.60
41262;DHT22;29629;52.532;13.352;2023-06-04T10:04:33;33.20;56.90
41262;DHT22;29629;52.532;13.352;2023-06-04T10:07:04;33.00;57.40
41262;DHT22;29629;52.532;13.352;2023-06-04T10:09:32;33.50;56.60
41262;DHT22;29629;52.532;13.352;2023-06-04T10:12:01;34.20;56.20
41262;DHT22;29629;52.532;13.352;2023-06-04T10:14:35;34.00;55.10
41262;DHT22;29629;52.532;13.352;2023-06-04T10:17:03;33.10;54.70
41262;DHT22;29629;52.532;13.352;2023-06-04T10:19:32;33.70;55.80
41262;DHT22;29629;52.532;13.352;2023-06-04T10:21:59;33.00;57.50
41262;DHT22;29629;52.532;13.352;2023-06-04T10:24:28;33.90;55.50
41262;DHT22;29629;52.532;13.352;2023-06-04T10:26:58;33.50;55.70
41262;DHT22;29629;52.532;13.352;2023-06-04T10:29:25;34.20;55.40
41262;DHT22;29629;52.532;13.352;2023-06-04T10:31:54;34.40;55.60
41262;DHT22;29629;52.532;13.352;2023-06-04T10:34:21;34.20;55.90
41262;DHT22;29629;52.532;13.352;2023-06-04T10:36:48;34.50;55.90
41262;DHT22;29629;52.532;13.352;2023-06-04T10:39:25;34.30;54.80
41262;DHT22;29629;52.532;13.352;2023-06-04T10:41:59;34.20;53.90
41262;DHT22;29629;52.532;13.352;2023-06-04T10:44:26;34.20;53.90
41262;DHT22;29629;52.532;13.352;2023-06-04T10:46:53;33.70;54.20
41262;DHT22;29629;52.532;13.352;2023-06-04T10:49:26;33.10;54.60
41262;DHT22;29629;52.532;13.352;2023-06-04T10:51:53;32.90;56.30
41262;DHT22;29629;52.532;13.352;2023-06-04T10:54:25;33.60;54.50
41262;DHT22;29629;52.532;13.352;2023-06-04T10:56:52;34.50;53.70
41262;DHT22;29629;52.532;13.352;2023-06-04T10:59:21;34.60;54.00
41262;DHT22;29629;52.532;13.352;2023-06-04T11:01:49;34.60;54.10
41262;DHT22;29629;52.532;13.352;2023-06-04T11:04:20;34.60;53.10
41262;DHT22;29629;52.532;13.352;2023-06-04T11:06:48;35.10;55.00
41262;DHT22;29629;52.532;13.352;2023-06-04T11:09:16;34.20;53.50
41262;DHT22;29629;52.532;13.352;2023-06-04T11:11:44;34.60;52.90
41262;DHT22;29629;52.532;13.352;2023-06-04T11:14:11;34.60;52.30
41262;DHT22;29629;52.532;13.352;2023-06-04T11:16:40;34.70;54.30
41262;DHT22;29629;52.532;13.352;2023-06-04T11:19:08;35.00;53.40
41262;DHT22;29629;52.532;13.352;2023-06-04T11:21:35;35.30;52.80
41262;DHT22;29629;52.532;13.352;2023-06-04T11:24:04;35.20;52.10
41262;DHT22;29629;52.532;13.352;2023-06-04T11:26:31;35.20;51.80
41262;DHT22;29629;52.532;13.352;2023-06-04T11:28:59;34.90;52.90
41262;DHT22;29629;52.532;13.352;2023-06-04T11:31:26;35.20;52.40
41262;DHT22;29629;52.532;13.352;2023-06-04T11:33:55;34.10;51.10
41262;DHT22;29629;52.532;13.352;2023-06-04T11:36:23;31.40;51.10
41262;DHT22;29629;52.532;13.352;2023-06-04T11:38:54;31.40;53.00
41262;DHT22;29629;52.532;13.352;2023-06-04T11:41:22;32.40;54.30
41262;DHT22;29629;52.532;13.352;2023-06-04T11:43:49;33.50;54.20
41262;DHT22;29629;52.532;13.352;2023-06-04T11:46:16;33.70;53.20
41262;DHT22;29629;52.532;13.352;2023-06-04T11:48:43;34.30;53.40
41262;DHT22;29629;52.532;13.352;2023-06-04T11:51:12;34.50;53.30
41262;DHT22;29629;52.532;13.352;2023-06-04T11:53:39;34.60;52.50
41262;DHT22;29629;52.532;13.352;2023-06-04T11:56:07;35.10;52.40
41262;DHT22;29629;52.532;13.352;2023-06-04T11:58:34;34.10;52.70
41262;DHT22;29629;52.532;13.352;2023-06-04T12:01:02;34.40;52.50
41262;DHT22;29629;52.532;13.352;2023-06-04T12:03:34;34.70;51.40
41262;DHT22;29629;52.532;13.352;2023-06-04T12:06:12;34.40;51.30
41262;DHT22;29629;52.532;13.352;2023-06-04T12:08:49;34.40;52.40
41262;DHT22;29629;52.532;13.352;2023-06-04T12:11:29;33.10;51.90
41262;DHT22;29629;52.532;13.352;2023-06-04T12:13:58;33.10;53.20
41262;DHT22;29629;52.532;13.352;2023-06-04T12:16:25;33.40;51.50
41262;DHT22;29629;52.532;13.352;2023-06-04T12:19:03;33.50;52.20
41262;DHT22;29629;52.532;13.352;2023-06-04T12:21:33;34.00;52.70
41262;DHT22;29629;52.532;13.352;2023-06-04T12:24:07;34.30;52.40
41262;DHT22;29629;52.532;13.352;2023-06-04T12:26:34;34.30;52.50
41262;DHT22;29629;52.532;13.352;2023-06-04T12:29:10;34.30;51.80
41262;DHT22;29629;52.532;13.352;2023-06-04T12:31:37;33.70;52.60
41262;DHT22;29629;52.532;13.352;2023-06-04T12:34:04;33.70;53.00
41262;DHT22;29629;52.532;13.352;2023-06-04T12:36:32;33.70;51.90
41262;DHT22;29629;52.532;13.352;2023-06-04T12:39:01;32.80;52.40
41262;DHT22;29629;52.532;13.352;2023-06-04T12:41:29;33.20;52.50
41262;DHT22;29629;52.532;13.352;2023-06-04T12:43:56;33.40;52.10
41262;DHT22;29629;52.532;13.352;2023-06-04T12:46:23;33.40;52.20
41262;DHT22;29629;52.532;13.352;2023-06-04T12:48:51;33.40;52.40
41262;DHT22;29629;52.532;13.352;2023-06-04T12:51:19;31.50;52.20
41262;DHT22;29629;52.532;13.352;2023-06-04T12:53:48;32.40;53.00
41262;DHT22;29629;52.532;13.352;2023-06-04T12:56:15;32.80;52.30
41262;DHT22;29629;52.532;13.352;2023-06-04T12:58:42;32.70;52.70
41262;DHT22;29629;52.532;13.352;2023-06-04T13:01:09;32.60;52.40
41262;DHT22;29629;52.532;13.352;2023-06-04T13:03:37;32.30;53.80
41262;DHT22;29629;52.532;13.352;2023-06-04T13:06:04;32.20;53.90
41262;DHT22;29629;52.532;13.352;2023-06-04T13:08:32;31.90;54.60
41262;DHT22;29629;52.532;13.352;2023-06-04T13:11:01;31.80;53.70
41262;DHT22;29629;52.532;13.352;2023-06-04T13:13:28;31.40;53.70
41262;DHT22;29629;52.532;13.352;2023-06-04T13:15:56;31.20;53.60
41262;DHT22;29629;52.532;13.352;2023-06-04T13:18:23;30.80;53.20
41262;DHT22;29629;52.532;13.352;2023-06-04T13:20:50;30.20;53.30
41262;DHT22;29629;52.532;13.352;2023-06-04T13:23:17;30.10;54.20
41262;DHT22;29629;52.532;13.352;2023-06-04T13:25:44;29.80;53.90
41262;DHT22;29629;52.532;13.352;2023-06-04T13:28:12;29.80;54.10
41262;DHT22;29629;52.532;13.352;2023-06-04T13:30:39;29.20;54.60
41262;DHT22;29629;52.532;13.352;2023-06-04T13:33:06;29.40;54.70
41262;DHT22;29629;52.532;13.352;2023-06-04T13:35:33;29.00;54.50
41262;DHT22;29629;52.532;13.352;2023-06-04T13:38:01;28.60;55.80
41262;DHT22;29629;52.532;13.352;2023-06-04T13:40:28;28.40;55.10
41262;DHT22;29629;52.532;13.352;2023-06-04T13:42:55;28.80;55.50
41262;DHT22;29629;52.532;13.352;2023-06-04T13:45:24;28.60;55.00
41262;DHT22;29629;52.532;13.352;2023-06-04T13:47:51;28.40;55.50
41262;DHT22;29629;52.532;13.352;2023-06-04T13:50:19;28.10;55.40
41262;DHT22;29629;52.532;13.352;2023-06-04T13:52:47;28.40;55.20
41262;DHT22;29629;52.532;13.352;2023-06-04T13:55:14;27.80;55.40
41262;DHT22;29629;52.532;13.352;2023-06-04T13:57:41;27.50;56.30
41262;DHT22;29629;52.532;13.352;2023-06-04T14:00:09;27.40;56.60
41262;DHT22;29629;52.532;13.352;2023-06-04T14:02:40;27.20;56.30
41262;DHT22;29629;52.532;13.352;2023-06-04T14:05:07;27.00;55.80
41262;DHT22;29629;52.532;13.352;2023-06-04T14:07:35;26.80;56.30
41262;DHT22;29629;52.532;13.352;2023-06-04T14:10:02;27.00;56.70
41262;DHT22;29629;52.532;13.352;2023-06-04T14:12:29;26.90;56.90
41262;DHT22;29629;52.532;13.352;2023-06-04T14:14:56;26.70;56.40
41262;DHT22;29629;52.532;13.352;2023-06-04T14:17:23;26.40;56.60
41262;DHT22;29629;52.532;13.352;2023-06-04T14:19:51;26.20;57.20
41262;DHT22;29629;52.532;13.352;2023-06-04T14:22:18;26.30;57.40
41262;DHT22;29629;52.532;13.352;2023-06-04T14:24:45;26.10;57.60
41262;DHT22;29629;52.532;13.352;2023-06-04T14:27:12;25.80;57.20
41262;DHT22;29629;52.532;13.352;2023-06-04T14:29:39;25.50;57.80
41262;DHT22;29629;52.532;13.352;2023-06-04T14:32:06;25.20;57.80
41262;DHT22;29629;52.532;13.352;2023-06-04T14:34:33;25.20;58.00
41262;DHT22;29629;52.532;13.352;2023-06-04T14:37:01;24.90;58.40
41262;DHT22;29629;52.532;13.352;2023-06-04T14:39:28;24.70;58.40
41262;DHT22;29629;52.532;13.352;2023-06-04T14:41:55;24.60;58.80
41262;DHT22;29629;52.532;13.352;2023-06-04T14:44:22;24.30;59.00
41262;DHT22;29629;52.532;13.352;2023-06-04T14:46:49;24.30;59.10
41262;DHT22;29629;52.532;13.352;2023-06-04T14:49:17;24.30;58.70
41262;DHT22;29629;52.532;13.352;2023-06-04T14:51:45;24.30;58.90
41262;DHT22;29629;52.532;13.352;2023-06-04T14:54:14;24.40;59.40
41262;DHT22;29629;52.532;13.352;2023-06-04T14:56:41;24.60;60.10
41262;DHT22;29629;52.532;13.352;2023-06-04T14:59:09;24.60;60.30
41262;DHT22;29629;52.532;13.352;2023-06-04T15:01:38;24.70;60.20
41262;DHT22;29629;52.532;13.352;2023-06-04T15:04:06;24.80;60.20
41262;DHT22;29629;52.532;13.352;2023-06-04T15:06:34;24.80;60.40
41262;DHT22;29629;52.532;13.352;2023-06-04T15:09:01;24.80;60.10
41262;DHT22;29629;52.532;13.352;2023-06-04T15:11:30;24.90;60.10
41262;DHT22;29629;52.532;13.352;2023-06-04T15:13:57;24.80;59.80
41262;DHT22;29629;52.532;13.352;2023-06-04T15:16:24;24.80;60.00
41262;DHT22;29629;52.532;13.352;2023-06-04T15:18:51;24.70;60.20
41262;DHT22;29629;52.532;13.352;2023-06-04T15:21:18;24.40;60.40